createdAt,value
2022-08-25T00:01:57.129Z,9.37
2022-08-25T00:04:24.797Z,9.30
2022-08-25T00:06:53.679Z,9.05
2022-08-25T00:09:22.807Z,9.50
2022-08-25T00:11:50.319Z,10.10
2022-08-25T00:14:23.307Z,10.37
2022-08-25T00:16:50.852Z,10.02
2022-08-25T00:19:26.403Z,9.05
2022-08-25T00:21:53.980Z,8.93
2022-08-25T00:24:21.465Z,9.68
2022-08-25T00:26:50.383Z,9.53
2022-08-25T00:29:17.994Z,8.98
2022-08-25T00:31:45.749Z,10.65
2022-08-25T00:34:15.908Z,9.00
2022-08-25T00:36:43.615Z,9.27
2022-08-25T00:39:11.243Z,9.30
2022-08-25T00:41:39.829Z,8.85
2022-08-25T00:44:07.994Z,9.75
2022-08-25T00:46:41.444Z,9.50
2022-08-25T00:49:33.911Z,9.15
2022-08-25T00:52:22.571Z,10.37
2022-08-25T00:54:53.043Z,9.82
2022-08-25T00:57:34.174Z,9.48
2022-08-25T01:00:07.646Z,9.27
2022-08-25T01:02:35.122Z,9.35
2022-08-25T01:05:02.833Z,9.80
2022-08-25T01:07:30.183Z,9.13
2022-08-25T01:09:57.431Z,8.07
2022-08-25T01:12:24.772Z,8.43
2022-08-25T01:14:52.066Z,8.27
2022-08-25T01:17:20.718Z,9.27
2022-08-25T01:19:48.007Z,8.23
2022-08-25T01:22:17.424Z,7.75
2022-08-25T01:24:53.481Z,8.55
2022-08-25T01:27:20.866Z,8.52
2022-08-25T01:29:48.120Z,8.10
2022-08-25T01:32:15.807Z,8.15
2022-08-25T01:34:44.689Z,7.45
2022-08-25T01:37:13.710Z,7.72
2022-08-25T01:39:41.121Z,7.80
2022-08-25T01:42:11.661Z,8.30
2022-08-25T01:44:43.740Z,7.60
2022-08-25T01:47:11.318Z,7.85
2022-08-25T01:49:38.571Z,8.15
2022-08-25T01:52:33.782Z,7.85
2022-08-25T01:55:01.194Z,7.30
2022-08-25T01:57:31.299Z,7.85
2022-08-25T01:59:59.160Z,7.50
2022-08-25T02:02:26.567Z,8.20
2022-08-25T02:04:53.957Z,8.20
2022-08-25T02:07:22.388Z,8.00
2022-08-25T02:09:49.761Z,9.00
2022-08-25T02:12:17.312Z,8.60
2022-08-25T02:14:44.636Z,9.18
2022-08-25T02:17:11.944Z,9.10
2022-08-25T02:19:39.340Z,9.23
2022-08-25T02:22:06.686Z,10.35
2022-08-25T02:24:35.048Z,9.38
2022-08-25T02:27:04.162Z,8.82
2022-08-25T02:29:31.646Z,8.70
2022-08-25T02:31:59.036Z,8.63
2022-08-25T02:34:26.447Z,8.30
2022-08-25T02:36:53.763Z,8.95
2022-08-25T02:39:21.150Z,8.50
2022-08-25T02:41:48.452Z,8.57
2022-08-25T02:44:16.141Z,8.43
2022-08-25T02:46:43.408Z,8.38
2022-08-25T02:49:10.821Z,8.55
2022-08-25T02:51:38.123Z,8.48
2022-08-25T02:54:05.953Z,8.13
2022-08-25T02:56:33.334Z,8.43
2022-08-25T02:59:01.329Z,8.98
2022-08-25T03:01:29.305Z,7.93
2022-08-25T03:03:57.033Z,8.43
2022-08-25T03:06:24.549Z,8.35
2022-08-25T03:08:52.275Z,8.30
2022-08-25T03:11:19.640Z,9.30
2022-08-25T03:13:47.101Z,8.77
2022-08-25T03:16:14.585Z,9.27
2022-08-25T03:18:42.227Z,9.93
2022-08-25T03:21:11.663Z,9.73
2022-08-25T03:23:39.926Z,10.60
2022-08-25T03:26:30.502Z,10.48
2022-08-25T03:28:57.889Z,10.35
2022-08-25T03:31:26.998Z,10.73
2022-08-25T03:33:54.539Z,11.50
2022-08-25T03:36:21.811Z,10.70
2022-08-25T03:38:49.292Z,12.20
2022-08-25T03:41:19.106Z,12.10
2022-08-25T03:43:48.282Z,11.90
2022-08-25T03:46:19.474Z,11.57
2022-08-25T03:48:47.019Z,11.57
2022-08-25T03:51:26.184Z,12.25
2022-08-25T03:53:53.601Z,12.50
2022-08-25T03:56:20.883Z,13.88
2022-08-25T03:58:48.313Z,12.63
2022-08-25T04:01:16.718Z,11.60
2022-08-25T04:03:46.076Z,12.57
2022-08-25T04:06:13.478Z,12.18
2022-08-25T04:08:40.870Z,13.75
2022-08-25T04:11:13.331Z,12.77
2022-08-25T04:13:42.499Z,13.02
2022-08-25T04:16:14.390Z,12.93
2022-08-25T04:18:42.390Z,12.40
2022-08-25T04:21:10.656Z,12.48
2022-08-25T04:23:38.995Z,12.80
2022-08-25T04:26:29.206Z,13.20
2022-08-25T04:28:57.420Z,11.73
2022-08-25T04:31:24.911Z,12.45
2022-08-25T04:33:52.389Z,12.85
2022-08-25T04:36:20.016Z,12.90
2022-08-25T04:38:47.633Z,13.73
2022-08-25T04:41:16.047Z,13.65
2022-08-25T04:43:44.139Z,11.73
2022-08-25T04:46:23.753Z,14.05
2022-08-25T04:48:52.200Z,12.77
2022-08-25T04:51:23.516Z,12.65
2022-08-25T04:53:50.996Z,12.13
2022-08-25T04:56:21.283Z,13.10
2022-08-25T04:58:48.711Z,12.15
2022-08-25T05:01:18.201Z,12.27
2022-08-25T05:03:46.868Z,13.23
2022-08-25T05:06:16.282Z,13.27
2022-08-25T05:08:45.888Z,13.43
2022-08-25T05:11:14.982Z,12.63
2022-08-25T05:13:43.365Z,12.27
2022-08-25T05:16:11.492Z,12.20
2022-08-25T05:18:39.027Z,13.40
2022-08-25T05:21:11.476Z,13.55
2022-08-25T05:23:38.985Z,12.20
2022-08-25T05:26:20.299Z,12.67
2022-08-25T05:28:49.867Z,12.75
2022-08-25T05:31:17.285Z,12.77
2022-08-25T05:33:44.658Z,13.68
2022-08-25T05:36:12.966Z,12.40
2022-08-25T05:38:41.152Z,12.20
2022-08-25T05:41:10.720Z,12.48
2022-08-25T05:43:39.019Z,12.82
2022-08-25T05:46:06.735Z,12.93
2022-08-25T05:48:34.177Z,12.85
2022-08-25T05:51:02.709Z,13.13
2022-08-25T05:53:31.093Z,12.40
2022-08-25T05:56:01.918Z,13.70
2022-08-25T05:58:29.470Z,12.95
2022-08-25T06:00:57.336Z,12.70
2022-08-25T06:03:24.723Z,12.50
2022-08-25T06:05:52.201Z,13.13
2022-08-25T06:08:20.056Z,13.25
2022-08-25T06:10:52.655Z,14.02
2022-08-25T06:13:26.874Z,12.65
2022-08-25T06:16:00.240Z,13.47
2022-08-25T06:18:27.639Z,12.65
2022-08-25T06:20:54.918Z,13.15
2022-08-25T06:23:22.340Z,13.02
2022-08-25T06:25:51.125Z,13.55
2022-08-25T06:28:19.520Z,13.77
2022-08-25T06:30:47.844Z,14.40
2022-08-25T06:33:15.712Z,12.90
2022-08-25T06:35:43.632Z,13.60
2022-08-25T06:38:12.033Z,13.98
2022-08-25T06:40:39.705Z,13.80
2022-08-25T06:43:09.059Z,14.48
2022-08-25T06:45:36.353Z,14.70
2022-08-25T06:48:03.918Z,13.55
2022-08-25T06:50:31.471Z,14.70
2022-08-25T06:52:58.872Z,13.50
2022-08-25T06:55:26.232Z,13.30
2022-08-25T06:57:55.108Z,14.32
2022-08-25T07:00:23.221Z,13.68
2022-08-25T07:02:59.187Z,14.18
2022-08-25T07:05:40.891Z,13.47
2022-08-25T07:08:12.101Z,13.85
2022-08-25T07:10:39.840Z,13.75
2022-08-25T07:13:07.272Z,11.55
2022-08-25T07:15:38.744Z,12.02
2022-08-25T07:18:07.849Z,12.40
2022-08-25T07:20:35.895Z,13.20
2022-08-25T07:23:04.604Z,12.27
2022-08-25T07:25:34.989Z,12.75
2022-08-25T07:28:02.475Z,12.25
2022-08-25T07:30:30.046Z,11.27
2022-08-25T07:32:57.536Z,10.90
2022-08-25T07:35:27.453Z,10.45
2022-08-25T07:38:06.752Z,10.85
2022-08-25T07:40:38.238Z,10.48
2022-08-25T07:43:10.770Z,11.40
2022-08-25T07:45:43.150Z,11.55
2022-08-25T07:48:17.774Z,10.90
2022-08-25T07:50:46.699Z,10.73
2022-08-25T07:53:15.065Z,11.02
2022-08-25T07:55:45.096Z,10.30
2022-08-25T07:58:13.070Z,10.35
2022-08-25T08:00:42.390Z,10.10
2022-08-25T08:03:19.935Z,10.20
2022-08-25T08:05:58.231Z,10.70
2022-08-25T08:08:25.569Z,10.47
2022-08-25T08:11:04.053Z,11.20
2022-08-25T08:13:37.917Z,10.55
2022-08-25T08:16:11.893Z,10.30
2022-08-25T08:18:43.166Z,10.30
2022-08-25T08:21:19.180Z,10.07
2022-08-25T08:23:49.199Z,9.23
2022-08-25T08:26:20.608Z,9.25
2022-08-25T08:28:52.159Z,9.30
2022-08-25T08:31:21.519Z,8.82
2022-08-25T08:33:50.297Z,8.80
2022-08-25T08:36:18.939Z,8.13
2022-08-25T08:38:49.041Z,8.55
2022-08-25T08:44:35.349Z,8.23
2022-08-25T08:47:19.172Z,7.90
2022-08-25T08:49:58.703Z,7.78
2022-08-25T08:53:01.384Z,7.32
2022-08-25T08:55:54.129Z,6.82
2022-08-25T08:58:24.107Z,7.60
2022-08-25T09:00:55.866Z,7.13
2022-08-25T09:03:40.790Z,7.28
2022-08-25T09:06:23.285Z,7.93
2022-08-25T09:08:51.587Z,8.10
2022-08-25T09:11:23.785Z,7.35
2022-08-25T09:14:18.547Z,7.20
2022-08-25T09:17:19.519Z,7.32
2022-08-25T09:19:52.891Z,7.20
2022-08-25T09:22:40.281Z,6.50
2022-08-25T09:25:08.913Z,7.65
2022-08-25T09:27:58.099Z,6.47
2022-08-25T09:30:27.026Z,7.28
2022-08-25T09:33:02.236Z,7.47
2022-08-25T09:35:34.705Z,7.40
2022-08-25T09:38:07.568Z,7.25
2022-08-25T09:40:40.904Z,7.07
2022-08-25T09:43:41.388Z,6.80
2022-08-25T09:46:08.857Z,6.60
2022-08-25T09:48:43.424Z,6.28
2022-08-25T09:51:21.390Z,5.57
2022-08-25T09:53:53.808Z,5.67
2022-08-25T09:56:22.653Z,5.25
2022-08-25T09:58:50.341Z,4.78
2022-08-25T10:01:22.349Z,4.88
2022-08-25T10:04:04.348Z,5.40
2022-08-25T10:06:45.407Z,5.00
2022-08-25T10:09:22.326Z,5.22
2022-08-25T10:11:49.721Z,5.22
2022-08-25T10:14:19.572Z,6.65
2022-08-25T10:16:48.107Z,6.32
2022-08-25T10:19:21.974Z,6.40
2022-08-25T10:22:10.936Z,6.53
2022-08-25T10:24:41.009Z,6.32
2022-08-25T10:27:29.968Z,6.20
2022-08-25T10:30:26.011Z,5.90
2022-08-25T10:33:10.570Z,5.90
2022-08-25T10:36:00.131Z,5.70
2022-08-25T10:38:48.568Z,5.65
2022-08-25T10:41:36.233Z,5.47
2022-08-25T10:44:04.273Z,4.65
2022-08-25T10:46:47.625Z,5.22
2022-08-25T10:49:36.187Z,4.67
2022-08-25T10:52:08.219Z,4.70
2022-08-25T10:55:00.834Z,4.65
2022-08-25T10:57:36.259Z,4.40
2022-08-25T11:00:14.155Z,4.60
2022-08-25T11:02:48.271Z,4.97
2022-08-25T11:05:24.611Z,4.38
2022-08-25T11:07:55.753Z,4.75
2022-08-25T11:10:26.881Z,4.90
2022-08-25T11:13:02.518Z,5.03
2022-08-25T11:15:37.084Z,5.50
2022-08-25T11:18:14.981Z,6.15
2022-08-25T11:20:50.317Z,4.65
2022-08-25T11:23:22.027Z,4.55
2022-08-25T11:25:59.931Z,4.35
2022-08-25T11:28:39.741Z,4.70
2022-08-25T11:31:08.851Z,4.45
2022-08-25T11:33:36.791Z,4.80
2022-08-25T11:36:30.771Z,4.53
2022-08-25T11:39:16.993Z,4.22
2022-08-25T11:42:21.686Z,4.33
2022-08-25T11:45:08.935Z,4.63
2022-08-25T11:48:00.773Z,4.40
2022-08-25T11:50:35.588Z,4.47
2022-08-25T11:53:26.651Z,4.57
2022-08-25T11:56:04.385Z,4.20
2022-08-25T11:58:34.651Z,4.15
2022-08-25T12:01:02.851Z,4.70
2022-08-25T12:03:34.132Z,4.32
2022-08-25T12:06:15.317Z,4.20
2022-08-25T12:08:57.630Z,4.53
2022-08-25T12:11:49.276Z,4.72
2022-08-25T12:14:16.842Z,4.50
2022-08-25T12:16:57.336Z,4.07
2022-08-25T12:19:28.640Z,4.63
2022-08-25T12:21:59.178Z,4.03
2022-08-25T12:24:48.336Z,4.60
2022-08-25T12:27:34.141Z,4.20
2022-08-25T12:30:40.174Z,4.80
2022-08-25T12:33:33.048Z,4.80
2022-08-25T12:36:02.474Z,4.40
2022-08-25T12:38:50.922Z,4.50
2022-08-25T12:41:33.751Z,4.38
2022-08-25T12:44:35.663Z,4.10
2022-08-25T12:47:27.354Z,4.53
2022-08-25T12:50:33.481Z,4.43
2022-08-25T12:53:39.936Z,4.38
2022-08-25T12:56:20.562Z,4.10
2022-08-25T12:59:13.481Z,4.35
2022-08-25T13:02:03.208Z,4.75
2022-08-25T13:04:41.644Z,3.93
2022-08-25T13:07:15.647Z,4.28
2022-08-25T13:09:49.895Z,4.50
2022-08-25T13:12:32.547Z,4.30
2022-08-25T13:15:01.321Z,4.60
2022-08-25T13:17:33.928Z,4.70
2022-08-25T13:20:15.135Z,4.40
2022-08-25T13:22:45.190Z,4.60
2022-08-25T13:25:23.061Z,4.47
2022-08-25T13:27:52.153Z,4.40
2022-08-25T13:30:33.576Z,3.97
2022-08-25T13:33:01.100Z,4.07
2022-08-25T13:35:38.405Z,4.50
2022-08-25T13:38:15.779Z,4.35
2022-08-25T13:40:44.330Z,4.13
2022-08-25T13:43:13.226Z,4.20
2022-08-25T13:45:45.505Z,3.95
2022-08-25T13:48:23.156Z,4.30
2022-08-25T13:50:53.690Z,3.92
2022-08-25T13:53:25.613Z,4.13
2022-08-25T13:56:00.801Z,4.20
2022-08-25T13:58:44.293Z,3.95
2022-08-25T14:01:22.420Z,4.07
2022-08-25T14:04:51.664Z,3.85
2022-08-25T14:07:20.933Z,3.97
2022-08-25T14:10:06.770Z,4.03
2022-08-25T14:12:44.931Z,3.97
2022-08-25T14:15:15.746Z,4.05
2022-08-25T14:18:00.910Z,3.95
2022-08-25T14:20:29.825Z,3.72
2022-08-25T14:22:59.291Z,4.20
2022-08-25T14:25:27.938Z,4.30
2022-08-25T14:28:09.140Z,4.55
2022-08-25T14:30:43.393Z,4.20
2022-08-25T14:33:10.906Z,4.00
2022-08-25T14:35:38.259Z,4.43
2022-08-25T14:38:10.871Z,4.10
2022-08-25T14:40:39.658Z,3.83
2022-08-25T14:43:09.606Z,3.97
2022-08-25T14:45:39.953Z,4.15
2022-08-25T14:48:10.623Z,3.90
2022-08-25T14:50:41.151Z,4.10
2022-08-25T14:53:10.645Z,3.90
2022-08-25T14:55:38.943Z,3.88
2022-08-25T14:58:07.914Z,4.35
2022-08-25T15:00:37.576Z,4.53
2022-08-25T15:03:05.172Z,4.00
2022-08-25T15:05:32.542Z,3.80
2022-08-25T15:08:18.420Z,3.95
2022-08-25T15:10:46.779Z,3.80
2022-08-25T15:13:14.821Z,4.20
2022-08-25T15:15:52.762Z,4.00
2022-08-25T15:18:21.792Z,3.88
2022-08-25T15:20:49.986Z,4.13
2022-08-25T15:23:18.713Z,4.30
2022-08-25T15:25:46.908Z,4.53
2022-08-25T15:28:17.128Z,4.10
2022-08-25T15:30:45.937Z,4.15
2022-08-25T15:33:14.288Z,4.40
2022-08-25T15:35:41.834Z,4.53
2022-08-25T15:38:10.851Z,4.15
2022-08-25T15:40:39.191Z,4.33
2022-08-25T15:43:06.947Z,4.20
2022-08-25T15:45:36.361Z,4.05
2022-08-25T15:48:06.828Z,4.38
2022-08-25T15:50:37.326Z,3.97
2022-08-25T15:53:07.041Z,4.00
2022-08-25T15:55:40.938Z,4.00
2022-08-25T15:58:08.885Z,4.43
2022-08-25T16:00:37.882Z,4.38
2022-08-25T16:03:08.072Z,4.20
2022-08-25T16:05:39.768Z,3.80
2022-08-25T16:08:19.590Z,3.72
2022-08-25T16:10:47.569Z,3.70
2022-08-25T16:13:14.872Z,3.90
2022-08-25T16:15:46.849Z,3.75
2022-08-25T16:18:21.516Z,3.77
2022-08-25T16:20:49.218Z,4.05
2022-08-25T16:23:17.611Z,3.95
2022-08-25T16:25:46.374Z,4.10
2022-08-25T16:28:14.802Z,4.13
2022-08-25T16:30:52.542Z,3.93
2022-08-25T16:33:20.667Z,4.13
2022-08-25T16:35:49.301Z,3.83
2022-08-25T16:38:16.926Z,3.88
2022-08-25T16:40:46.131Z,4.00
2022-08-25T16:43:13.615Z,4.27
2022-08-25T16:45:41.109Z,4.05
2022-08-25T16:48:08.984Z,5.05
2022-08-25T16:50:39.258Z,5.28
2022-08-25T16:53:25.239Z,4.45
2022-08-25T16:56:01.669Z,4.80
2022-08-25T16:58:30.181Z,4.60
2022-08-25T17:01:04.893Z,4.60
2022-08-25T17:03:34.953Z,4.55
2022-08-25T17:06:02.441Z,4.60
2022-08-25T17:08:30.734Z,4.77
2022-08-25T17:11:10.600Z,4.68
2022-08-25T17:13:39.763Z,4.65
2022-08-25T17:16:12.799Z,4.60
2022-08-25T17:18:42.729Z,4.38
2022-08-25T17:21:17.043Z,4.90
2022-08-25T17:23:51.691Z,4.32
2022-08-25T17:26:19.352Z,5.00
2022-08-25T17:28:46.926Z,5.22
2022-08-25T17:31:14.849Z,4.80
2022-08-25T17:33:42.354Z,4.80
2022-08-25T17:36:12.149Z,4.60
2022-08-25T17:38:44.058Z,5.00
2022-08-25T17:41:11.687Z,4.78
2022-08-25T17:43:41.235Z,4.72
2022-08-25T17:46:08.990Z,4.60
2022-08-25T17:48:38.091Z,4.63
2022-08-25T17:51:11.709Z,4.78
2022-08-25T17:53:39.157Z,4.95
2022-08-25T17:56:08.923Z,5.18
2022-08-25T17:58:36.585Z,4.87
2022-08-25T18:01:04.498Z,5.32
2022-08-25T18:03:32.915Z,5.40
2022-08-25T18:06:00.645Z,5.97
2022-08-25T18:08:35.068Z,6.15
2022-08-25T18:11:04.839Z,6.47
2022-08-25T18:13:32.254Z,6.50
2022-08-25T18:16:00.390Z,6.95
2022-08-25T18:18:27.918Z,6.95
2022-08-25T18:20:55.305Z,6.93
2022-08-25T18:23:22.690Z,7.07
2022-08-25T18:25:50.353Z,7.57
2022-08-25T18:28:17.735Z,7.75
2022-08-25T18:30:45.998Z,7.38
2022-08-25T18:33:13.814Z,7.88
2022-08-25T18:35:41.320Z,8.10
2022-08-25T18:38:27.131Z,7.93
2022-08-25T18:40:58.945Z,8.43
2022-08-25T18:43:26.552Z,8.43
2022-08-25T18:45:55.092Z,9.23
2022-08-25T18:48:26.519Z,8.63
2022-08-25T18:50:54.373Z,9.85
2022-08-25T18:53:36.680Z,8.60
2022-08-25T18:56:05.841Z,8.45
2022-08-25T18:58:33.383Z,8.18
2022-08-25T19:01:01.702Z,8.43
2022-08-25T19:03:29.070Z,7.75
2022-08-25T19:05:57.872Z,8.25
2022-08-25T19:08:25.300Z,7.30
2022-08-25T19:10:53.692Z,7.20
2022-08-25T19:13:22.778Z,7.03
2022-08-25T19:15:50.859Z,6.63
2022-08-25T19:18:19.361Z,6.30
2022-08-25T19:20:53.835Z,5.85
2022-08-25T19:23:21.465Z,6.00
2022-08-25T19:25:49.019Z,5.87
2022-08-25T19:28:17.028Z,4.80
2022-08-25T19:30:50.531Z,6.00
2022-08-25T19:33:31.377Z,5.68
2022-08-25T19:36:08.581Z,5.25
2022-08-25T19:38:36.740Z,5.63
2022-08-25T19:41:09.387Z,5.75
2022-08-25T19:43:56.609Z,5.47
2022-08-25T19:46:35.394Z,5.40
2022-08-25T19:49:16.452Z,6.55
2022-08-25T19:51:47.533Z,6.97
2022-08-25T19:54:21.424Z,7.38
2022-08-25T19:56:54.231Z,7.80
2022-08-25T19:59:24.808Z,7.22
2022-08-25T20:01:52.376Z,6.72
2022-08-25T20:04:20.022Z,5.93
2022-08-25T20:06:48.439Z,6.68
2022-08-25T20:09:35.623Z,6.85
2022-08-25T20:12:06.273Z,6.78
2022-08-25T20:14:34.168Z,6.38
2022-08-25T20:17:03.091Z,6.60
2022-08-25T20:19:31.458Z,6.70
2022-08-25T20:21:59.589Z,7.45
2022-08-25T20:24:46.408Z,7.47
2022-08-25T20:27:13.834Z,7.40
2022-08-25T20:29:41.214Z,7.88
2022-08-25T20:32:12.207Z,7.43
2022-08-25T20:34:41.500Z,7.50
2022-08-25T20:37:09.279Z,7.00
2022-08-25T20:39:36.872Z,7.25
2022-08-25T20:42:04.672Z,7.30
2022-08-25T20:44:39.937Z,7.10
2022-08-25T20:47:13.037Z,7.10
2022-08-25T20:49:40.810Z,8.00
2022-08-25T20:52:09.358Z,7.53
2022-08-25T20:54:37.068Z,8.27
2022-08-25T20:57:04.937Z,8.30
2022-08-25T20:59:35.336Z,7.65
2022-08-25T21:02:02.923Z,6.95
2022-08-25T21:04:31.316Z,7.15
2022-08-25T21:07:00.346Z,7.15
2022-08-25T21:09:28.698Z,6.77
2022-08-25T21:11:56.991Z,6.78
2022-08-25T21:14:24.802Z,7.22
2022-08-25T21:16:53.805Z,7.57
2022-08-25T21:19:26.694Z,6.93
2022-08-25T21:21:59.637Z,8.17
2022-08-25T21:24:27.589Z,8.35
2022-08-25T21:26:56.150Z,8.18
2022-08-25T21:29:24.485Z,9.32
2022-08-25T21:31:51.803Z,7.53
2022-08-25T21:34:19.643Z,7.23
2022-08-25T21:36:48.527Z,8.00
2022-08-25T21:39:15.978Z,7.05
2022-08-25T21:41:45.792Z,7.28
2022-08-25T21:44:13.842Z,7.72
2022-08-25T21:46:41.601Z,7.33
2022-08-25T21:49:21.259Z,7.07
2022-08-25T21:51:51.033Z,6.70
2022-08-25T21:54:27.109Z,7.60
2022-08-25T21:57:03.541Z,7.53
2022-08-25T21:59:36.562Z,6.87
2022-08-25T22:02:05.940Z,6.70
2022-08-25T22:04:33.568Z,6.65
2022-08-25T22:07:01.220Z,6.30
2022-08-25T22:09:30.058Z,6.78
2022-08-25T22:11:57.622Z,6.43
2022-08-25T22:14:26.469Z,6.63
2022-08-25T22:16:54.890Z,6.13
2022-08-25T22:19:22.835Z,6.25
2022-08-25T22:21:51.190Z,6.03
2022-08-25T22:24:19.055Z,6.37
2022-08-25T22:26:47.552Z,6.70
2022-08-25T22:29:25.050Z,5.93
2022-08-25T22:31:59.786Z,6.00
2022-08-25T22:34:34.570Z,6.05
2022-08-25T22:37:03.485Z,6.03
2022-08-25T22:39:31.470Z,5.82
2022-08-25T22:41:59.985Z,8.43
2022-08-25T22:44:27.499Z,6.30
2022-08-25T22:46:55.267Z,5.82
2022-08-25T22:49:23.803Z,6.00
2022-08-25T22:51:53.791Z,5.88
2022-08-25T22:54:23.065Z,5.97
2022-08-25T22:56:52.700Z,5.90
2022-08-25T22:59:20.069Z,5.93
2022-08-25T23:01:49.772Z,5.83
2022-08-25T23:04:17.681Z,5.60
2022-08-25T23:06:47.208Z,5.90
2022-08-25T23:09:14.652Z,6.07
2022-08-25T23:11:43.170Z,6.28
2022-08-25T23:14:11.268Z,5.77
2022-08-25T23:16:39.737Z,6.13
2022-08-25T23:19:14.014Z,6.15
2022-08-25T23:22:01.299Z,5.95
2022-08-25T23:24:30.660Z,5.78
2022-08-25T23:26:59.366Z,5.70
2022-08-25T23:29:27.902Z,5.50
2022-08-25T23:31:55.625Z,5.90
2022-08-25T23:34:23.458Z,5.82
2022-08-25T23:36:51.270Z,6.30
2022-08-25T23:39:18.809Z,5.60
2022-08-25T23:41:50.110Z,6.05
2022-08-25T23:44:18.681Z,5.72
2022-08-25T23:46:47.165Z,6.10
2022-08-25T23:49:18.437Z,5.50
2022-08-25T23:51:50.353Z,5.53
2022-08-25T23:54:19.895Z,6.18
2022-08-25T23:56:52.480Z,6.30
2022-08-25T23:59:24.424Z,6.32
